createdAt,value
2023-03-26T00:01:40.580Z,5.40
2023-03-26T00:04:14.036Z,5.50
2023-03-26T00:06:41.873Z,5.10
2023-03-26T00:09:11.138Z,4.90
2023-03-26T00:11:38.473Z,4.70
2023-03-26T00:14:05.908Z,4.70
2023-03-26T00:16:33.828Z,4.60
2023-03-26T00:19:01.906Z,4.60
2023-03-26T00:21:31.142Z,4.70
2023-03-26T00:24:04.620Z,4.70
2023-03-26T00:26:33.857Z,4.70
2023-03-26T00:29:03.597Z,4.80
2023-03-26T00:31:31.310Z,5.00
2023-03-26T00:33:58.697Z,4.90
2023-03-26T00:36:27.016Z,4.80
2023-03-26T00:38:54.608Z,4.80
2023-03-26T00:41:26.829Z,4.70
2023-03-26T00:43:56.936Z,4.70
2023-03-26T00:46:25.759Z,4.80
2023-03-26T00:48:52.884Z,4.60
2023-03-26T00:51:21.509Z,4.60
2023-03-26T00:53:50.095Z,4.70
2023-03-26T00:56:17.749Z,4.80
2023-03-26T00:58:45.115Z,4.90
2023-03-26T01:01:15.563Z,5.10
2023-03-26T01:03:52.987Z,5.20
2023-03-26T01:06:32.917Z,5.30
2023-03-26T01:09:14.761Z,5.20
2023-03-26T01:11:42.212Z,5.30
2023-03-26T01:14:23.739Z,5.40
2023-03-26T01:16:56.567Z,5.40
2023-03-26T01:19:52.810Z,5.50
2023-03-26T01:22:23.513Z,5.50
2023-03-26T01:24:56.857Z,5.70
2023-03-26T01:27:52.158Z,5.80
2023-03-26T01:30:43.273Z,5.80
2023-03-26T01:33:36.717Z,5.80
2023-03-26T01:36:21.830Z,5.70
2023-03-26T01:38:48.858Z,5.40
2023-03-26T01:41:44.305Z,5.20
2023-03-26T01:44:19.768Z,4.80
2023-03-26T01:46:47.855Z,4.80
2023-03-26T01:49:14.909Z,5.00
2023-03-26T01:51:42.921Z,5.00
2023-03-26T01:54:14.879Z,5.10
2023-03-26T01:56:52.411Z,5.20
2023-03-26T01:59:47.397Z,5.10
2023-03-26T02:02:42.726Z,4.90
2023-03-26T02:05:22.214Z,4.60
2023-03-26T02:08:00.093Z,4.30
2023-03-26T02:10:30.238Z,4.00
2023-03-26T02:12:59.149Z,3.60
2023-03-26T02:15:26.397Z,3.50
2023-03-26T02:17:54.355Z,3.40
2023-03-26T02:20:21.989Z,3.40
2023-03-26T02:22:49.195Z,3.20
2023-03-26T02:25:20.616Z,3.20
2023-03-26T02:27:50.738Z,3.20
2023-03-26T02:30:26.740Z,3.10
2023-03-26T02:32:59.555Z,3.00
2023-03-26T02:35:32.332Z,3.00
2023-03-26T02:38:01.496Z,3.00
2023-03-26T02:40:28.855Z,3.10
2023-03-26T02:42:56.540Z,3.20
2023-03-26T02:45:24.206Z,3.20
2023-03-26T02:48:20.611Z,3.30
2023-03-26T02:50:54.610Z,3.20
2023-03-26T02:53:41.453Z,3.10
2023-03-26T02:56:31.552Z,3.30
2023-03-26T02:59:21.633Z,3.30
2023-03-26T03:01:59.110Z,3.70
2023-03-26T03:04:26.190Z,3.90
2023-03-26T03:06:57.934Z,4.10
2023-03-26T03:09:26.171Z,4.20
2023-03-26T03:12:11.861Z,4.30
2023-03-26T03:14:39.242Z,4.40
2023-03-26T03:17:06.722Z,4.40
2023-03-26T03:19:38.001Z,4.40
2023-03-26T03:22:05.509Z,4.40
2023-03-26T03:24:34.354Z,4.40
2023-03-26T03:27:02.166Z,4.20
2023-03-26T03:29:39.466Z,3.90
2023-03-26T03:32:32.601Z,3.80
2023-03-26T03:35:03.627Z,3.70
2023-03-26T03:37:31.199Z,3.70
2023-03-26T03:40:00.241Z,3.60
2023-03-26T03:42:31.001Z,3.60
2023-03-26T03:45:02.249Z,3.50
2023-03-26T03:47:47.647Z,3.40
2023-03-26T03:50:19.550Z,3.40
2023-03-26T03:53:01.297Z,3.60
2023-03-26T03:55:28.903Z,3.70
2023-03-26T03:57:57.017Z,3.70
2023-03-26T04:00:25.279Z,3.70
2023-03-26T04:03:14.449Z,3.50
2023-03-26T04:05:43.913Z,3.50
2023-03-26T04:08:11.141Z,3.80
2023-03-26T04:10:45.906Z,4.00
2023-03-26T04:13:15.973Z,4.30
2023-03-26T04:16:00.700Z,4.30
2023-03-26T04:18:37.865Z,4.00
2023-03-26T04:21:18.937Z,3.70
2023-03-26T04:24:01.881Z,3.40
2023-03-26T04:26:51.186Z,3.30
2023-03-26T04:29:25.821Z,3.30
2023-03-26T04:32:06.770Z,3.30
2023-03-26T04:34:37.018Z,3.30
2023-03-26T04:37:23.824Z,3.10
2023-03-26T04:40:10.726Z,3.10
2023-03-26T04:42:46.430Z,3.20
2023-03-26T04:45:23.018Z,3.30
2023-03-26T04:48:00.961Z,3.50
2023-03-26T04:50:28.327Z,3.60
2023-03-26T04:52:59.433Z,3.70
2023-03-26T04:55:56.383Z,3.70
2023-03-26T04:58:43.480Z,4.00
2023-03-26T05:01:11.393Z,4.30
2023-03-26T05:03:49.122Z,4.30
2023-03-26T05:06:22.515Z,4.60
2023-03-26T05:08:50.138Z,4.80
2023-03-26T05:11:36.323Z,4.90
2023-03-26T05:14:03.702Z,4.90
2023-03-26T05:16:32.044Z,4.90
2023-03-26T05:19:07.164Z,5.00
2023-03-26T05:21:36.310Z,5.00
2023-03-26T05:24:03.383Z,5.10
2023-03-26T05:26:30.557Z,5.10
2023-03-26T05:28:57.768Z,5.10
2023-03-26T05:31:31.771Z,5.10
2023-03-26T05:34:03.656Z,5.00
2023-03-26T05:36:30.883Z,5.00
2023-03-26T05:39:26.579Z,5.00
2023-03-26T05:42:31.950Z,5.10
2023-03-26T05:45:13.246Z,5.10
2023-03-26T05:47:41.240Z,5.20
2023-03-26T05:50:09.986Z,4.90
2023-03-26T05:52:40.000Z,4.60
2023-03-26T05:55:28.269Z,4.40
2023-03-26T05:58:14.199Z,4.30
2023-03-26T06:01:00.170Z,4.10
2023-03-26T06:03:39.195Z,4.00
2023-03-26T06:06:21.463Z,4.00
2023-03-26T06:09:01.006Z,3.90
2023-03-26T06:11:32.342Z,4.10
2023-03-26T06:14:03.467Z,4.10
2023-03-26T06:16:39.064Z,4.00
2023-03-26T06:19:22.129Z,3.90
2023-03-26T06:21:57.136Z,4.00
2023-03-26T06:24:48.785Z,4.20
2023-03-26T06:27:51.269Z,4.20
2023-03-26T06:30:44.474Z,4.00
2023-03-26T06:33:47.116Z,3.70
2023-03-26T06:36:14.750Z,3.80
2023-03-26T06:38:42.052Z,4.00
2023-03-26T06:41:10.114Z,4.10
2023-03-26T06:43:54.127Z,4.00
2023-03-26T06:46:39.899Z,3.80
2023-03-26T06:49:36.236Z,3.60
2023-03-26T06:52:19.194Z,3.30
2023-03-26T06:54:46.359Z,3.00
2023-03-26T06:57:36.598Z,3.10
2023-03-26T07:00:30.140Z,3.30
2023-03-26T07:03:17.441Z,3.40
2023-03-26T07:06:03.119Z,3.30
2023-03-26T07:08:48.749Z,3.30
2023-03-26T07:11:45.359Z,3.40
2023-03-26T07:14:32.794Z,3.40
2023-03-26T07:17:09.614Z,3.50
2023-03-26T07:19:53.787Z,3.70
2023-03-26T07:22:25.437Z,4.00
2023-03-26T07:25:05.234Z,4.30
2023-03-26T07:28:05.189Z,4.40
2023-03-26T07:31:14.000Z,4.50
2023-03-26T07:33:48.768Z,4.80
2023-03-26T07:36:36.314Z,5.20
2023-03-26T07:39:52.394Z,5.40
2023-03-26T07:42:57.569Z,5.40
2023-03-26T07:46:01.237Z,5.20
2023-03-26T07:48:49.725Z,5.20
2023-03-26T07:51:37.447Z,5.30
2023-03-26T07:54:27.928Z,5.40
2023-03-26T07:57:33.364Z,5.20
2023-03-26T08:00:44.348Z,5.20
2023-03-26T08:03:16.319Z,5.30
2023-03-26T08:06:08.466Z,5.40
2023-03-26T08:08:57.969Z,5.50
2023-03-26T08:11:58.313Z,5.60
2023-03-26T08:14:44.126Z,5.70
2023-03-26T08:17:15.207Z,5.50
2023-03-26T08:20:06.052Z,5.40
2023-03-26T08:22:43.416Z,5.50
2023-03-26T08:25:19.480Z,5.60
2023-03-26T08:28:00.784Z,5.60
2023-03-26T08:30:28.062Z,5.70
2023-03-26T08:32:56.903Z,5.60
2023-03-26T08:35:28.440Z,5.60
2023-03-26T08:37:55.604Z,5.70
2023-03-26T08:41:03.000Z,5.70
2023-03-26T08:43:41.937Z,5.60
2023-03-26T08:46:15.996Z,5.40
2023-03-26T08:49:04.051Z,5.20
2023-03-26T08:51:53.304Z,4.90
2023-03-26T08:54:41.605Z,4.80
2023-03-26T08:57:08.750Z,4.80
2023-03-26T09:00:13.110Z,5.00
2023-03-26T09:03:11.593Z,5.10
2023-03-26T09:05:56.809Z,5.20
2023-03-26T09:08:37.027Z,5.10
2023-03-26T09:11:35.425Z,4.80
2023-03-26T09:14:21.355Z,4.30
2023-03-26T09:17:00.422Z,3.90
2023-03-26T09:19:45.805Z,3.60
2023-03-26T09:22:56.397Z,3.60
2023-03-26T09:25:26.545Z,3.80
2023-03-26T09:28:32.327Z,4.20
2023-03-26T09:31:21.995Z,4.20
2023-03-26T09:33:56.158Z,4.00
2023-03-26T09:36:38.292Z,4.00
2023-03-26T09:39:17.742Z,3.70
2023-03-26T09:42:06.925Z,3.40
2023-03-26T09:44:56.687Z,3.20
2023-03-26T09:47:48.749Z,3.30
2023-03-26T09:50:27.017Z,3.20
2023-03-26T09:53:03.662Z,3.20
2023-03-26T09:55:42.268Z,3.30
2023-03-26T09:58:36.291Z,3.50
2023-03-26T10:01:21.349Z,3.50
2023-03-26T10:03:54.584Z,3.40
2023-03-26T10:06:33.696Z,3.20
2023-03-26T10:09:24.037Z,3.10
2023-03-26T10:11:56.909Z,3.10
2023-03-26T10:14:41.420Z,3.10
2023-03-26T10:17:44.871Z,3.50
2023-03-26T10:20:18.626Z,3.60
2023-03-26T10:23:16.666Z,4.00
2023-03-26T10:25:43.642Z,4.30
2023-03-26T10:28:29.248Z,4.40
2023-03-26T10:31:06.366Z,4.40
2023-03-26T10:34:01.648Z,4.60
2023-03-26T10:36:46.780Z,4.80
2023-03-26T10:39:37.055Z,5.10
2023-03-26T10:42:15.745Z,5.10
2023-03-26T10:44:58.634Z,5.00
2023-03-26T10:48:02.061Z,5.00
2023-03-26T10:50:51.902Z,4.80
2023-03-26T10:53:44.058Z,4.50
2023-03-26T10:56:47.020Z,4.50
2023-03-26T10:59:16.121Z,4.60
2023-03-26T11:02:30.283Z,4.50
2023-03-26T11:05:16.480Z,4.50
2023-03-26T11:07:58.814Z,4.30
2023-03-26T11:10:50.248Z,4.10
2023-03-26T11:13:40.659Z,3.60
2023-03-26T11:16:34.005Z,3.50
2023-03-26T11:19:22.506Z,3.70
2023-03-26T11:22:15.986Z,4.10
2023-03-26T11:25:09.080Z,4.00
2023-03-26T11:27:43.003Z,4.30
2023-03-26T11:30:28.524Z,4.40
2023-03-26T11:33:06.553Z,4.40
2023-03-26T11:35:41.873Z,4.50
2023-03-26T11:38:28.926Z,4.40
2023-03-26T11:40:58.436Z,4.80
2023-03-26T11:43:50.157Z,4.70
2023-03-26T11:46:20.997Z,5.00
2023-03-26T11:48:57.735Z,5.30
2023-03-26T11:51:33.312Z,5.60
2023-03-26T11:54:01.674Z,5.80
2023-03-26T11:56:38.247Z,6.00
2023-03-26T11:59:13.821Z,6.10
2023-03-26T12:02:12.920Z,6.00
2023-03-26T12:04:43.476Z,5.80
2023-03-26T12:07:32.199Z,5.90
2023-03-26T12:10:18.499Z,6.20
2023-03-26T12:12:48.012Z,6.40
2023-03-26T12:15:19.836Z,6.70
2023-03-26T12:17:49.387Z,7.10
2023-03-26T12:20:25.987Z,7.80
2023-03-26T12:22:59.234Z,8.20
2023-03-26T12:25:32.845Z,8.30
2023-03-26T12:28:02.731Z,8.20
2023-03-26T12:30:41.461Z,8.40
2023-03-26T12:33:22.318Z,8.50
2023-03-26T12:35:52.479Z,8.70
2023-03-26T12:38:33.490Z,8.90
2023-03-26T12:44:43.535Z,8.90
2023-03-26T12:44:56.403Z,8.90
2023-03-26T12:47:58.717Z,8.80
2023-03-26T12:50:16.571Z,8.70
2023-03-26T12:53:00.354Z,8.60
2023-03-26T12:55:42.570Z,8.50
2023-03-26T12:58:34.236Z,8.40
2023-03-26T13:01:03.984Z,8.10
2023-03-26T13:04:06.152Z,7.40
2023-03-26T13:06:58.932Z,6.50
2023-03-26T13:09:48.085Z,5.90
2023-03-26T13:12:23.924Z,5.80
2023-03-26T13:15:08.067Z,5.80
2023-03-26T13:18:07.796Z,5.60
2023-03-26T13:20:43.416Z,5.40
2023-03-26T13:23:28.077Z,5.00
2023-03-26T13:25:55.039Z,4.90
2023-03-26T13:28:57.972Z,4.80
2023-03-26T13:31:37.035Z,4.80
2023-03-26T13:34:28.409Z,4.90
2023-03-26T13:37:06.146Z,4.90
2023-03-26T13:40:10.613Z,5.00
2023-03-26T13:42:56.927Z,5.20
2023-03-26T13:45:47.803Z,5.70
2023-03-26T13:48:28.247Z,6.10
2023-03-26T13:50:58.356Z,6.50
2023-03-26T13:53:40.938Z,6.70
2023-03-26T13:56:11.880Z,6.60
2023-03-26T13:58:42.237Z,6.40
2023-03-26T14:01:22.023Z,6.20
2023-03-26T14:04:32.221Z,6.10
2023-03-26T14:07:11.472Z,5.90
2023-03-26T14:10:03.734Z,5.80
2023-03-26T14:12:51.372Z,5.90
2023-03-26T14:15:26.785Z,6.00
2023-03-26T14:18:07.946Z,6.20
2023-03-26T14:21:12.689Z,6.30
2023-03-26T14:24:06.910Z,6.40
2023-03-26T14:26:40.685Z,6.60
2023-03-26T14:29:18.893Z,6.70
2023-03-26T14:32:09.247Z,6.80
2023-03-26T14:34:36.758Z,6.90
2023-03-26T14:37:07.463Z,6.80
2023-03-26T14:39:54.188Z,6.80
2023-03-26T14:42:56.607Z,6.80
2023-03-26T14:45:36.959Z,6.60
2023-03-26T14:48:48.548Z,6.70
2023-03-26T14:51:42.500Z,6.90
2023-03-26T14:54:17.429Z,7.00
2023-03-26T14:56:53.493Z,7.00
2023-03-26T14:59:44.995Z,7.00
2023-03-26T15:02:24.356Z,7.00
2023-03-26T15:04:54.514Z,7.00
2023-03-26T15:07:52.819Z,7.00
2023-03-26T15:10:35.219Z,6.90
2023-03-26T15:13:29.808Z,6.80
2023-03-26T15:15:59.865Z,6.70
2023-03-26T15:18:32.771Z,6.50
2023-03-26T15:21:12.317Z,6.20
2023-03-26T15:24:01.299Z,6.00
2023-03-26T15:27:05.345Z,5.80
2023-03-26T15:29:44.390Z,5.80
2023-03-26T15:32:49.622Z,5.90
2023-03-26T15:35:19.559Z,6.00
2023-03-26T15:38:04.910Z,6.10
2023-03-26T15:40:41.858Z,6.00
2023-03-26T15:43:17.966Z,5.90
2023-03-26T15:45:47.659Z,5.90
2023-03-26T15:48:36.833Z,5.70
2023-03-26T15:51:08.145Z,5.50
2023-03-26T15:54:07.807Z,5.60
2023-03-26T15:56:58.138Z,5.40
2023-03-26T15:59:54.343Z,5.50
2023-03-26T16:02:21.945Z,5.80
2023-03-26T16:05:03.305Z,5.90
2023-03-26T16:07:40.142Z,6.00
2023-03-26T16:10:28.575Z,5.90
2023-03-26T16:13:15.037Z,6.00
2023-03-26T16:15:43.048Z,5.90
2023-03-26T16:18:10.488Z,5.90
2023-03-26T16:21:32.177Z,5.70
2023-03-26T16:24:02.800Z,5.60
2023-03-26T16:26:36.501Z,5.50
2023-03-26T16:29:19.242Z,5.70
2023-03-26T16:32:11.032Z,5.70
2023-03-26T16:34:53.066Z,6.00
2023-03-26T16:37:33.753Z,6.30
2023-03-26T16:40:21.862Z,6.50
2023-03-26T16:43:24.410Z,6.70
2023-03-26T16:46:25.835Z,6.90
2023-03-26T16:48:59.653Z,6.90
2023-03-26T16:51:51.166Z,7.00
2023-03-26T16:54:46.805Z,7.10
2023-03-26T16:57:24.204Z,6.90
2023-03-26T17:00:07.097Z,6.90
2023-03-26T17:02:55.317Z,6.90
2023-03-26T17:05:53.023Z,6.80
2023-03-26T17:08:36.794Z,6.80
2023-03-26T17:11:22.271Z,6.70
2023-03-26T17:14:04.627Z,6.50
2023-03-26T17:16:46.076Z,6.30
2023-03-26T17:19:37.432Z,6.20
2023-03-26T17:22:30.142Z,6.20
2023-03-26T17:25:37.202Z,6.20
2023-03-26T17:28:40.734Z,6.10
2023-03-26T17:31:39.524Z,6.00
2023-03-26T17:34:34.776Z,6.00
2023-03-26T17:37:29.568Z,6.10
2023-03-26T17:40:02.435Z,6.20
2023-03-26T17:42:35.631Z,6.30
2023-03-26T17:45:08.306Z,6.40
2023-03-26T17:47:40.703Z,6.30
2023-03-26T17:50:18.300Z,6.20
2023-03-26T17:52:53.744Z,6.20
2023-03-26T17:55:26.089Z,6.40
2023-03-26T17:58:00.557Z,6.40
2023-03-26T18:00:35.355Z,6.20
2023-03-26T18:03:09.227Z,6.20
2023-03-26T18:05:39.624Z,6.20
2023-03-26T18:08:21.829Z,6.00
2023-03-26T18:11:15.561Z,6.00
2023-03-26T18:13:48.766Z,6.00
2023-03-26T18:16:40.825Z,6.10
2023-03-26T18:19:19.665Z,6.10
2023-03-26T18:21:50.513Z,6.10
2023-03-26T18:24:29.701Z,6.00
2023-03-26T18:27:01.781Z,6.00
2023-03-26T18:29:35.415Z,6.00
2023-03-26T18:32:23.697Z,6.00
2023-03-26T18:35:13.631Z,6.00
2023-03-26T18:37:44.283Z,5.90
2023-03-26T18:40:20.357Z,5.80
2023-03-26T18:42:52.991Z,5.80
2023-03-26T18:45:36.291Z,5.80
2023-03-26T18:48:13.886Z,5.80
2023-03-26T18:50:42.356Z,5.90
2023-03-26T18:53:22.367Z,5.90
2023-03-26T18:55:50.974Z,6.00
2023-03-26T18:58:28.356Z,5.80
2023-03-26T19:01:01.446Z,5.50
2023-03-26T19:03:32.231Z,5.60
2023-03-26T19:06:04.775Z,5.70
2023-03-26T19:08:35.439Z,5.70
2023-03-26T19:11:04.946Z,5.80
2023-03-26T19:13:33.914Z,5.80
2023-03-26T19:16:04.890Z,5.80
2023-03-26T19:18:31.883Z,5.80
2023-03-26T19:21:01.424Z,5.70
2023-03-26T19:23:33.036Z,5.70
2023-03-26T19:26:02.666Z,5.70
2023-03-26T19:28:39.813Z,5.60
2023-03-26T19:31:32.112Z,5.50
2023-03-26T19:34:18.044Z,5.60
2023-03-26T19:37:01.279Z,5.60
2023-03-26T19:39:41.921Z,5.20
2023-03-26T19:42:15.195Z,5.20
2023-03-26T19:44:43.196Z,5.20
2023-03-26T19:47:48.401Z,5.00
2023-03-26T19:50:23.508Z,5.10
2023-03-26T19:53:16.049Z,5.10
2023-03-26T19:55:54.430Z,5.00
2023-03-26T19:58:21.738Z,5.10
2023-03-26T20:00:48.743Z,5.20
2023-03-26T20:03:22.052Z,5.10
2023-03-26T20:05:55.114Z,5.10
2023-03-26T20:08:27.294Z,5.10
2023-03-26T20:11:04.443Z,5.20
2023-03-26T20:13:31.597Z,5.20
2023-03-26T20:16:06.486Z,5.10
2023-03-26T20:18:34.810Z,5.10
2023-03-26T20:21:02.171Z,5.00
2023-03-26T20:23:29.256Z,5.00
2023-03-26T20:25:56.641Z,5.00
2023-03-26T20:28:24.690Z,5.00
2023-03-26T20:30:54.658Z,5.00
2023-03-26T20:33:27.862Z,5.10
2023-03-26T20:35:57.630Z,5.20
2023-03-26T20:38:38.936Z,5.20
2023-03-26T20:41:12.151Z,5.00
2023-03-26T20:43:39.255Z,5.10
2023-03-26T20:46:06.850Z,5.10
2023-03-26T20:48:34.199Z,5.20
2023-03-26T20:51:01.897Z,5.20
2023-03-26T20:53:31.908Z,5.20
2023-03-26T20:56:00.160Z,5.20
2023-03-26T20:58:30.721Z,5.30
2023-03-26T21:01:01.302Z,5.10
2023-03-26T21:03:28.561Z,5.10
2023-03-26T21:06:00.327Z,5.00
2023-03-26T21:08:34.167Z,5.10
2023-03-26T21:11:02.694Z,5.10
2023-03-26T21:13:48.269Z,5.10
2023-03-26T21:16:15.601Z,5.00
2023-03-26T21:18:42.986Z,4.90
2023-03-26T21:21:28.741Z,4.90
2023-03-26T21:24:09.452Z,5.00
2023-03-26T21:26:58.714Z,5.10
2023-03-26T21:29:25.946Z,5.10
2023-03-26T21:31:54.179Z,5.10
2023-03-26T21:34:23.101Z,5.20
2023-03-26T21:36:50.841Z,5.10
2023-03-26T21:39:18.417Z,5.20
2023-03-26T21:42:05.377Z,5.10
2023-03-26T21:44:33.723Z,5.00
2023-03-26T21:47:01.010Z,5.00
2023-03-26T21:49:28.538Z,5.00
2023-03-26T21:51:56.029Z,5.00
2023-03-26T21:54:28.703Z,5.00
2023-03-26T21:57:10.882Z,5.10
2023-03-26T21:59:43.825Z,5.10
2023-03-26T22:02:24.518Z,5.10
2023-03-26T22:04:57.312Z,5.10
2023-03-26T22:07:34.264Z,5.00
2023-03-26T22:10:01.289Z,4.90
2023-03-26T22:12:28.317Z,4.90
2023-03-26T22:14:55.364Z,4.90
2023-03-26T22:17:23.157Z,4.90
2023-03-26T22:19:50.153Z,4.90
2023-03-26T22:22:17.140Z,4.90
2023-03-26T22:24:44.126Z,4.80
2023-03-26T22:27:13.256Z,4.80
2023-03-26T22:29:40.248Z,4.80
2023-03-26T22:32:07.277Z,4.80
2023-03-26T22:34:35.193Z,4.70
2023-03-26T22:37:02.287Z,4.80
2023-03-26T22:39:29.387Z,4.70
2023-03-26T22:41:56.998Z,4.70
2023-03-26T22:44:24.034Z,4.70
2023-03-26T22:46:51.708Z,4.70
2023-03-26T22:49:19.236Z,4.80
2023-03-26T22:51:46.920Z,4.70
2023-03-26T22:54:15.499Z,4.70
2023-03-26T22:56:43.739Z,4.60
2023-03-26T22:59:10.875Z,4.60
2023-03-26T23:01:38.151Z,4.50
2023-03-26T23:04:05.224Z,4.50
2023-03-26T23:06:32.480Z,4.60
2023-03-26T23:08:59.623Z,4.60
2023-03-26T23:11:27.112Z,4.50
2023-03-26T23:13:54.108Z,4.50
2023-03-26T23:16:21.801Z,4.50
2023-03-26T23:18:49.183Z,4.50
2023-03-26T23:21:21.790Z,4.50
2023-03-26T23:23:50.551Z,4.50
2023-03-26T23:26:18.057Z,4.40
2023-03-26T23:28:45.139Z,4.30
2023-03-26T23:31:13.339Z,4.40
2023-03-26T23:33:50.743Z,4.30
2023-03-26T23:36:19.391Z,4.30
2023-03-26T23:38:48.352Z,4.30
2023-03-26T23:41:18.848Z,4.40
2023-03-26T23:43:54.878Z,4.40
2023-03-26T23:46:24.916Z,4.40
2023-03-26T23:48:52.926Z,4.50
2023-03-26T23:51:21.274Z,4.40
2023-03-26T23:53:49.485Z,4.40
2023-03-26T23:56:17.702Z,4.40
2023-03-26T23:58:44.956Z,4.40
